createdAt,value
2022-09-18T00:00:10.300Z,4.47
2022-09-18T00:02:40.863Z,5.28
2022-09-18T00:05:11.501Z,6.03
2022-09-18T00:07:41.982Z,5.47
2022-09-18T00:10:12.276Z,4.00
2022-09-18T00:12:42.680Z,5.17
2022-09-18T00:15:13.183Z,2.95
2022-09-18T00:17:43.681Z,3.90
2022-09-18T00:20:14.126Z,4.25
2022-09-18T00:22:44.579Z,3.12
2022-09-18T00:25:15.134Z,3.10
2022-09-18T00:27:45.627Z,2.50
2022-09-18T00:30:16.247Z,2.40
2022-09-18T00:32:46.727Z,3.40
2022-09-18T00:35:17.240Z,4.45
2022-09-18T00:37:47.543Z,2.17
2022-09-18T00:40:18.212Z,2.53
2022-09-18T00:42:48.637Z,2.30
2022-09-18T00:45:19.106Z,2.80
2022-09-18T00:47:51.983Z,2.33
2022-09-18T00:50:25.331Z,2.12
2022-09-18T00:53:03.241Z,1.70
2022-09-18T00:55:38.774Z,2.33
2022-09-18T00:58:10.157Z,1.98
2022-09-18T01:00:40.521Z,2.17
2022-09-18T01:03:12.583Z,1.42
2022-09-18T01:06:11.733Z,1.97
2022-09-18T01:08:56.881Z,1.80
2022-09-18T01:11:39.353Z,1.67
2022-09-18T01:14:30.712Z,1.80
2022-09-18T01:17:16.038Z,1.35
2022-09-18T01:20:23.942Z,2.37
2022-09-18T01:23:26.241Z,0.93
2022-09-18T01:26:02.737Z,0.90
2022-09-18T01:28:42.121Z,1.00
2022-09-18T01:31:21.546Z,1.98
2022-09-18T01:34:04.563Z,1.10
2022-09-18T01:36:38.826Z,1.33
2022-09-18T01:39:21.338Z,0.90
2022-09-18T01:41:55.981Z,1.60
2022-09-18T01:44:29.605Z,0.90
2022-09-18T01:47:02.257Z,0.75
2022-09-18T01:49:35.699Z,0.70
2022-09-18T01:52:12.290Z,2.00
2022-09-18T01:54:45.894Z,1.00
2022-09-18T01:57:22.305Z,1.07
2022-09-18T02:00:10.896Z,1.55
2022-09-18T02:03:02.308Z,1.07
2022-09-18T02:05:38.807Z,1.17
2022-09-18T02:08:17.960Z,0.73
2022-09-18T02:10:51.431Z,1.27
2022-09-18T02:13:24.840Z,1.70
2022-09-18T02:15:58.324Z,1.00
2022-09-18T02:18:31.756Z,1.27
2022-09-18T02:21:02.539Z,1.50
2022-09-18T02:23:34.501Z,1.05
2022-09-18T02:26:07.168Z,1.27
2022-09-18T02:28:39.813Z,1.37
2022-09-18T02:31:13.087Z,1.40
2022-09-18T02:33:44.757Z,1.52
2022-09-18T02:36:43.307Z,1.42
2022-09-18T02:39:37.459Z,5.07
2022-09-18T02:42:22.952Z,3.50
2022-09-18T02:45:04.773Z,3.47
2022-09-18T02:48:02.664Z,6.33
2022-09-18T02:50:45.137Z,3.30
2022-09-18T02:53:36.808Z,6.13
2022-09-18T02:56:21.157Z,5.93
2022-09-18T02:59:00.597Z,4.47
2022-09-18T03:01:33.175Z,5.50
2022-09-18T03:04:06.128Z,6.10
2022-09-18T03:06:36.450Z,6.47
2022-09-18T03:09:06.852Z,3.22
2022-09-18T03:11:37.448Z,5.97
2022-09-18T03:14:07.744Z,5.27
2022-09-18T03:16:38.173Z,6.37
2022-09-18T03:19:08.648Z,9.83
2022-09-18T03:21:39.085Z,8.20
2022-09-18T03:24:09.318Z,6.87
2022-09-18T03:26:39.841Z,9.47
2022-09-18T03:29:11.065Z,6.13
2022-09-18T03:31:41.914Z,8.00
2022-09-18T03:34:12.362Z,11.10
2022-09-18T03:36:42.749Z,9.83
2022-09-18T03:39:14.271Z,10.77
2022-09-18T03:41:45.084Z,14.47
2022-09-18T03:44:15.547Z,9.30
2022-09-18T03:46:46.130Z,14.97
2022-09-18T03:49:16.609Z,5.58
2022-09-18T03:51:47.010Z,7.50
2022-09-18T03:54:17.462Z,7.97
2022-09-18T03:56:49.005Z,8.10
2022-09-18T03:59:19.402Z,10.32
2022-09-18T04:01:49.904Z,13.87
2022-09-18T04:04:20.325Z,10.68
2022-09-18T04:06:51.128Z,9.23
2022-09-18T04:09:21.526Z,6.90
2022-09-18T04:11:51.944Z,10.15
2022-09-18T04:14:25.625Z,8.23
2022-09-18T04:16:54.885Z,9.37
2022-09-18T04:19:25.252Z,9.43
2022-09-18T04:21:55.573Z,9.13
2022-09-18T04:24:25.976Z,8.67
2022-09-18T04:26:56.358Z,11.07
2022-09-18T04:29:26.808Z,7.53
2022-09-18T04:31:57.134Z,11.63
2022-09-18T04:34:27.534Z,8.65
2022-09-18T04:36:57.896Z,5.75
2022-09-18T04:39:28.456Z,7.80
2022-09-18T04:41:59.528Z,9.20
2022-09-18T04:44:29.901Z,5.83
2022-09-18T04:47:00.539Z,9.95
2022-09-18T04:49:30.982Z,10.23
2022-09-18T04:52:01.397Z,8.57
2022-09-18T04:54:31.870Z,9.43
2022-09-18T04:57:02.225Z,6.78
2022-09-18T04:59:32.896Z,9.33
2022-09-18T05:02:03.362Z,10.18
2022-09-18T05:04:33.787Z,9.05
2022-09-18T05:07:05.154Z,9.80
2022-09-18T05:09:36.153Z,15.30
2022-09-18T05:12:06.860Z,9.35
2022-09-18T05:14:37.312Z,13.17
2022-09-18T05:17:07.743Z,5.67
2022-09-18T05:19:38.244Z,7.20
2022-09-18T05:22:08.735Z,8.40
2022-09-18T05:24:39.087Z,5.67
2022-09-18T05:27:10.234Z,6.93
2022-09-18T05:29:40.959Z,6.63
2022-09-18T05:32:11.376Z,8.13
2022-09-18T05:34:42.934Z,5.90
2022-09-18T05:37:13.451Z,5.53
2022-09-18T05:39:43.912Z,9.37
2022-09-18T05:42:14.301Z,6.13
2022-09-18T05:44:44.693Z,6.15
2022-09-18T05:47:15.193Z,9.50
2022-09-18T05:49:45.608Z,6.17
2022-09-18T05:52:15.992Z,8.30
2022-09-18T05:54:46.287Z,7.57
2022-09-18T05:57:16.788Z,8.28
2022-09-18T05:59:47.127Z,10.20
2022-09-18T06:02:17.636Z,10.20
2022-09-18T06:04:48.193Z,6.93
2022-09-18T06:07:18.518Z,6.93
2022-09-18T06:09:49.427Z,7.83
2022-09-18T06:12:19.964Z,5.33
2022-09-18T06:14:50.324Z,8.13
2022-09-18T06:17:20.894Z,6.17
2022-09-18T06:19:51.223Z,7.23
2022-09-18T06:22:21.724Z,8.35
2022-09-18T06:24:52.337Z,5.93
2022-09-18T06:27:22.833Z,10.63
2022-09-18T06:29:54.137Z,10.37
2022-09-18T06:32:24.431Z,12.85
2022-09-18T06:34:54.897Z,10.97
2022-09-18T06:37:25.224Z,8.63
2022-09-18T06:39:55.614Z,8.27
2022-09-18T06:42:26.018Z,7.40
2022-09-18T06:44:57.160Z,6.03
2022-09-18T06:47:27.515Z,7.43
2022-09-18T06:49:57.813Z,4.87
2022-09-18T06:52:28.446Z,6.58
2022-09-18T06:54:58.758Z,10.23
2022-09-18T06:57:29.175Z,6.53
2022-09-18T06:59:59.641Z,8.77
2022-09-18T07:02:30.032Z,6.10
2022-09-18T07:05:00.734Z,10.77
2022-09-18T07:07:31.171Z,9.37
2022-09-18T07:10:03.647Z,9.53
2022-09-18T07:12:33.410Z,6.72
2022-09-18T07:15:03.933Z,5.60
2022-09-18T07:17:34.727Z,6.90
2022-09-18T07:20:05.633Z,8.37
2022-09-18T07:22:35.957Z,7.12
2022-09-18T07:25:07.631Z,10.03
2022-09-18T07:27:37.971Z,7.10
2022-09-18T07:30:09.104Z,7.23
2022-09-18T07:32:39.446Z,6.03
2022-09-18T07:35:10.777Z,6.35
2022-09-18T07:37:41.098Z,6.90
2022-09-18T07:40:12.722Z,5.30
2022-09-18T07:42:43.312Z,4.47
2022-09-18T07:45:13.808Z,5.85
2022-09-18T07:47:44.130Z,6.50
2022-09-18T07:50:16.028Z,4.77
2022-09-18T07:52:58.978Z,6.80
2022-09-18T07:55:29.752Z,9.73
2022-09-18T07:58:02.194Z,6.93
2022-09-18T08:00:38.031Z,5.97
2022-09-18T08:03:13.799Z,4.53
2022-09-18T08:05:44.325Z,5.50
2022-09-18T08:08:16.355Z,5.37
2022-09-18T08:10:46.973Z,6.00
2022-09-18T08:13:17.374Z,6.13
2022-09-18T08:15:47.777Z,5.30
2022-09-18T08:18:18.179Z,7.90
2022-09-18T08:20:48.609Z,6.53
2022-09-18T08:23:18.976Z,7.05
2022-09-18T08:25:49.361Z,7.23
2022-09-18T08:28:19.734Z,7.67
2022-09-18T08:30:50.133Z,5.83
2022-09-18T08:33:20.980Z,5.35
2022-09-18T08:35:51.552Z,6.72
2022-09-18T08:38:22.006Z,4.00
2022-09-18T08:41:10.413Z,3.55
2022-09-18T08:43:55.845Z,6.03
2022-09-18T08:46:47.610Z,4.80
2022-09-18T08:49:36.907Z,8.80
2022-09-18T08:52:16.100Z,6.37
2022-09-18T08:54:58.247Z,5.25
2022-09-18T08:57:43.785Z,4.08
2022-09-18T09:00:17.287Z,5.50
2022-09-18T09:02:50.677Z,7.62
2022-09-18T09:05:24.408Z,6.23
2022-09-18T09:08:14.311Z,5.28
2022-09-18T09:11:02.822Z,5.30
2022-09-18T09:14:10.549Z,4.78
2022-09-18T09:16:52.250Z,6.40
2022-09-18T09:19:25.655Z,7.10
2022-09-18T09:22:08.318Z,5.10
2022-09-18T09:25:00.975Z,3.20
2022-09-18T09:27:34.454Z,2.77
2022-09-18T09:30:17.057Z,7.08
2022-09-18T09:33:15.066Z,3.73
2022-09-18T09:35:51.370Z,6.60
2022-09-18T09:38:27.474Z,5.28
2022-09-18T09:41:00.437Z,2.55
2022-09-18T09:43:56.454Z,7.30
2022-09-18T09:46:54.022Z,4.17
2022-09-18T09:49:30.906Z,6.50
2022-09-18T09:52:25.120Z,3.02
2022-09-18T09:55:04.770Z,5.70
2022-09-18T09:57:41.171Z,4.08
2022-09-18T10:00:19.738Z,7.70
2022-09-18T10:03:02.180Z,4.70
2022-09-18T10:05:45.013Z,4.62
2022-09-18T10:08:21.193Z,7.60
2022-09-18T10:10:59.780Z,5.40
2022-09-18T10:13:38.888Z,6.60
2022-09-18T10:16:17.992Z,6.20
2022-09-18T10:18:49.662Z,8.10
2022-09-18T10:21:22.922Z,2.87
2022-09-18T10:23:59.123Z,6.90
2022-09-18T10:26:50.679Z,6.77
2022-09-18T10:29:21.694Z,4.47
2022-09-18T10:31:57.725Z,7.73
2022-09-18T10:34:41.170Z,4.43
2022-09-18T10:37:29.638Z,4.43
2022-09-18T10:40:01.901Z,3.70
2022-09-18T10:42:35.109Z,4.60
2022-09-18T10:45:08.387Z,2.75
2022-09-18T10:47:39.159Z,4.17
2022-09-18T10:50:15.373Z,5.47
2022-09-18T10:52:47.189Z,4.50
2022-09-18T10:55:20.785Z,5.33
2022-09-18T10:57:57.064Z,6.60
2022-09-18T11:00:32.465Z,3.47
2022-09-18T11:03:15.098Z,2.42
2022-09-18T11:05:51.856Z,7.30
2022-09-18T11:08:25.284Z,3.37
2022-09-18T11:11:01.630Z,6.62
2022-09-18T11:13:33.091Z,4.87
2022-09-18T11:16:05.245Z,5.92
2022-09-18T11:18:37.276Z,5.92
2022-09-18T11:21:08.720Z,5.60
2022-09-18T11:23:40.298Z,6.00
2022-09-18T11:26:22.197Z,7.60
2022-09-18T11:29:20.180Z,4.53
2022-09-18T11:31:59.301Z,3.53
2022-09-18T11:34:35.879Z,2.80
2022-09-18T11:37:12.082Z,3.45
2022-09-18T11:39:45.602Z,1.98
2022-09-18T11:42:18.383Z,3.72
2022-09-18T11:44:48.871Z,1.47
2022-09-18T11:47:25.673Z,5.22
2022-09-18T11:50:13.827Z,4.12
2022-09-18T11:52:47.399Z,2.08
2022-09-18T11:55:39.015Z,3.12
2022-09-18T11:58:18.083Z,2.85
2022-09-18T12:01:12.746Z,5.17
2022-09-18T12:03:47.368Z,3.35
2022-09-18T12:06:41.852Z,5.85
2022-09-18T12:09:30.707Z,5.67
2022-09-18T12:12:13.297Z,4.45
2022-09-18T12:14:52.232Z,1.95
2022-09-18T12:17:40.583Z,2.40
2022-09-18T12:20:16.843Z,1.70
2022-09-18T12:22:56.408Z,2.92
2022-09-18T12:25:50.423Z,1.90
2022-09-18T12:28:28.216Z,2.70
2022-09-18T12:31:13.338Z,2.08
2022-09-18T12:33:58.601Z,1.67
2022-09-18T12:36:48.267Z,1.45
2022-09-18T12:39:33.895Z,2.40
2022-09-18T12:42:25.706Z,2.92
2022-09-18T12:45:17.508Z,2.25
2022-09-18T12:48:07.565Z,5.10
2022-09-18T12:51:00.867Z,2.67
2022-09-18T12:53:46.405Z,3.00
2022-09-18T12:56:25.540Z,3.25
2022-09-18T12:59:05.083Z,2.20
2022-09-18T13:01:45.126Z,3.80
2022-09-18T13:04:21.198Z,4.05
2022-09-18T13:07:00.342Z,3.67
2022-09-18T13:09:33.759Z,3.52
2022-09-18T13:12:07.852Z,2.98
2022-09-18T13:14:43.663Z,4.17
2022-09-18T13:17:20.304Z,2.47
2022-09-18T13:19:59.941Z,1.87
2022-09-18T13:22:33.338Z,2.02
2022-09-18T13:25:05.960Z,2.70
2022-09-18T13:27:37.253Z,2.55
2022-09-18T13:30:25.639Z,3.45
2022-09-18T13:32:57.755Z,1.30
2022-09-18T13:35:34.420Z,2.77
2022-09-18T13:38:11.178Z,2.05
2022-09-18T13:40:47.797Z,1.20
2022-09-18T13:43:30.549Z,1.72
2022-09-18T13:46:06.859Z,5.37
2022-09-18T13:48:44.363Z,2.33
2022-09-18T13:51:23.750Z,2.22
2022-09-18T13:54:24.076Z,3.00
2022-09-18T13:57:14.189Z,1.92
2022-09-18T13:59:53.392Z,1.80
2022-09-18T14:02:41.606Z,2.92
2022-09-18T14:05:39.749Z,2.58
2022-09-18T14:08:25.958Z,1.47
2022-09-18T14:11:16.455Z,2.00
2022-09-18T14:13:56.170Z,10.40
2022-09-18T14:16:32.973Z,1.60
2022-09-18T14:19:23.029Z,1.15
2022-09-18T14:21:54.146Z,1.75
2022-09-18T14:24:39.254Z,1.77
2022-09-18T14:27:32.294Z,2.08
2022-09-18T14:30:18.041Z,1.45
2022-09-18T14:32:57.238Z,1.35
2022-09-18T14:35:39.668Z,2.35
2022-09-18T14:38:28.044Z,4.05
2022-09-18T14:41:12.070Z,3.17
2022-09-18T14:43:45.535Z,2.17
2022-09-18T14:46:20.974Z,2.77
2022-09-18T14:48:52.181Z,1.27
2022-09-18T14:51:40.639Z,1.50
2022-09-18T14:54:03.607Z,2.05
2022-09-18T14:56:36.984Z,1.93
2022-09-18T14:59:10.389Z,2.45
2022-09-18T15:01:41.322Z,1.72
2022-09-18T15:04:18.191Z,4.15
2022-09-18T15:06:51.318Z,2.73
2022-09-18T15:09:30.478Z,1.98
2022-09-18T15:12:03.131Z,3.40
2022-09-18T15:14:45.367Z,4.08
2022-09-18T15:17:22.600Z,2.75
2022-09-18T15:20:01.964Z,1.47
2022-09-18T15:22:32.391Z,1.55
2022-09-18T15:25:03.220Z,1.35
2022-09-18T15:27:34.195Z,2.67
2022-09-18T15:30:10.263Z,2.20
2022-09-18T15:32:43.728Z,1.67
2022-09-18T15:35:20.063Z,2.15
2022-09-18T15:37:53.892Z,2.27
2022-09-18T15:40:30.416Z,2.17
2022-09-18T15:43:03.574Z,2.90
2022-09-18T15:45:35.949Z,3.08
2022-09-18T15:48:15.218Z,4.37
2022-09-18T15:50:45.681Z,2.52
2022-09-18T15:53:19.359Z,1.03
2022-09-18T15:56:02.253Z,2.17
2022-09-18T15:58:47.652Z,1.85
2022-09-18T16:01:21.112Z,1.05
2022-09-18T16:04:08.411Z,1.60
2022-09-18T16:06:39.683Z,0.95
2022-09-18T16:09:13.100Z,1.53
2022-09-18T16:11:46.109Z,2.43
2022-09-18T16:14:39.934Z,2.87
2022-09-18T16:17:36.427Z,2.70
2022-09-18T16:20:24.694Z,2.92
2022-09-18T16:22:58.636Z,1.15
2022-09-18T16:25:30.333Z,2.22
2022-09-18T16:28:03.683Z,4.03
2022-09-18T16:30:34.065Z,2.55
2022-09-18T16:33:07.564Z,2.33
2022-09-18T16:35:37.938Z,3.17
2022-09-18T16:38:10.318Z,1.95
2022-09-18T16:40:43.379Z,2.75
2022-09-18T16:43:13.864Z,2.20
2022-09-18T16:45:44.622Z,4.05
2022-09-18T16:48:15.540Z,2.72
2022-09-18T16:50:47.392Z,4.42
2022-09-18T16:53:17.783Z,2.83
2022-09-18T16:55:52.050Z,1.65
2022-09-18T16:58:24.841Z,1.47
2022-09-18T17:00:55.328Z,3.77
2022-09-18T17:03:28.308Z,5.22
2022-09-18T17:05:59.250Z,4.62
2022-09-18T17:08:30.897Z,2.22
2022-09-18T17:11:01.280Z,2.90
2022-09-18T17:13:31.591Z,4.03
2022-09-18T17:16:02.299Z,4.50
2022-09-18T17:18:32.730Z,4.83
2022-09-18T17:21:04.364Z,4.30
2022-09-18T17:23:36.565Z,5.80
2022-09-18T17:26:14.392Z,2.10
2022-09-18T17:28:44.683Z,3.40
2022-09-18T17:31:18.155Z,3.90
2022-09-18T17:33:48.835Z,3.07
2022-09-18T17:36:19.887Z,3.42
2022-09-18T17:38:50.514Z,3.10
2022-09-18T17:41:21.345Z,2.30
2022-09-18T17:43:53.483Z,5.37
2022-09-18T17:46:23.803Z,4.87
2022-09-18T17:48:59.084Z,3.03
2022-09-18T17:51:29.720Z,4.97
2022-09-18T17:54:03.181Z,3.90
2022-09-18T17:56:34.872Z,3.73
2022-09-18T17:59:08.143Z,4.00
2022-09-18T18:01:42.608Z,4.23
2022-09-18T18:04:14.039Z,4.70
2022-09-18T18:06:47.373Z,3.20
2022-09-18T18:09:17.659Z,3.37
2022-09-18T18:11:49.512Z,2.37
2022-09-18T18:14:20.210Z,2.53
2022-09-18T18:16:52.559Z,2.27
2022-09-18T18:19:22.874Z,3.20
2022-09-18T18:21:53.821Z,3.37
2022-09-18T18:24:24.216Z,2.50
2022-09-18T18:26:55.673Z,2.87
2022-09-18T18:29:26.409Z,2.53
2022-09-18T18:31:57.074Z,2.00
2022-09-18T18:34:27.661Z,2.83
2022-09-18T18:36:57.995Z,3.83
2022-09-18T18:39:28.398Z,4.43
2022-09-18T18:41:58.884Z,12.13
2022-09-18T18:44:29.242Z,5.90
2022-09-18T18:47:00.935Z,2.77
2022-09-18T18:49:31.514Z,2.33
2022-09-18T18:52:03.656Z,3.13
2022-09-18T18:54:34.036Z,3.02
2022-09-18T18:57:06.250Z,5.03
2022-09-18T18:59:36.851Z,5.57
2022-09-18T19:02:07.567Z,6.47
2022-09-18T19:04:39.758Z,4.47
2022-09-18T19:07:10.910Z,4.17
2022-09-18T19:09:41.292Z,3.67
2022-09-18T19:12:13.218Z,4.70
2022-09-18T19:14:43.608Z,3.30
2022-09-18T19:17:15.557Z,3.87
2022-09-18T19:19:46.338Z,4.13
2022-09-18T19:22:18.681Z,3.37
2022-09-18T19:24:49.079Z,3.85
2022-09-18T19:27:19.446Z,4.53
2022-09-18T19:29:50.272Z,2.83
2022-09-18T19:32:21.123Z,3.67
2022-09-18T19:34:51.408Z,3.60
2022-09-18T19:37:21.805Z,2.63
2022-09-18T19:39:52.111Z,1.97
2022-09-18T19:42:27.339Z,3.60
2022-09-18T19:45:01.551Z,4.00
2022-09-18T19:47:36.910Z,11.10
2022-09-18T19:50:09.739Z,16.53
2022-09-18T19:52:42.030Z,7.20
2022-09-18T19:55:16.951Z,3.50
2022-09-18T19:57:48.199Z,18.60
2022-09-18T20:00:18.844Z,4.37
2022-09-18T20:02:49.362Z,4.10
2022-09-18T20:05:20.092Z,4.53
2022-09-18T20:07:50.544Z,3.03
2022-09-18T20:10:22.838Z,3.50
2022-09-18T20:12:53.882Z,3.43
2022-09-18T20:15:24.112Z,2.63
2022-09-18T20:17:55.688Z,4.27
2022-09-18T20:20:26.831Z,3.53
2022-09-18T20:22:57.493Z,17.93
2022-09-18T20:25:28.025Z,8.07
2022-09-18T20:27:58.403Z,3.00
2022-09-18T20:30:28.764Z,5.23
2022-09-18T20:32:59.142Z,2.60
2022-09-18T20:35:29.604Z,3.37
2022-09-18T20:38:01.740Z,3.20
2022-09-18T20:40:32.549Z,4.70
2022-09-18T20:43:04.252Z,4.30
2022-09-18T20:45:34.795Z,2.97
2022-09-18T20:48:06.390Z,2.35
2022-09-18T20:50:39.084Z,2.13
2022-09-18T20:53:09.443Z,3.70
2022-09-18T20:55:39.813Z,3.17
2022-09-18T20:58:11.324Z,3.53
2022-09-18T21:00:41.788Z,3.13
2022-09-18T21:03:13.364Z,3.33
2022-09-18T21:05:44.395Z,5.30
2022-09-18T21:08:14.966Z,2.70
2022-09-18T21:10:48.240Z,5.87
2022-09-18T21:13:19.970Z,6.20
2022-09-18T21:15:50.307Z,4.70
2022-09-18T21:18:20.658Z,5.30
2022-09-18T21:20:52.580Z,4.03
2022-09-18T21:23:41.276Z,4.77
2022-09-18T21:26:17.449Z,5.30
2022-09-18T21:28:46.010Z,5.57
2022-09-18T21:31:16.464Z,6.33
2022-09-18T21:33:47.348Z,4.97
2022-09-18T21:36:17.811Z,2.90
2022-09-18T21:38:50.237Z,5.07
2022-09-18T21:41:22.198Z,7.47
2022-09-18T21:43:53.923Z,5.10
2022-09-18T21:46:24.367Z,3.80
2022-09-18T21:48:56.377Z,4.43
2022-09-18T21:51:26.699Z,5.77
2022-09-18T21:53:58.665Z,3.80
2022-09-18T21:56:29.063Z,3.47
2022-09-18T21:58:59.946Z,3.30
2022-09-18T22:01:31.806Z,5.95
2022-09-18T22:04:02.973Z,3.67
2022-09-18T22:06:38.248Z,4.77
2022-09-18T22:09:23.222Z,3.70
2022-09-18T22:11:54.722Z,4.83
2022-09-18T22:14:29.329Z,3.60
2022-09-18T22:17:05.248Z,7.17
2022-09-18T22:19:40.634Z,4.37
2022-09-18T22:22:07.886Z,4.67
2022-09-18T22:24:38.787Z,3.50
2022-09-18T22:27:10.184Z,2.97
2022-09-18T22:29:42.008Z,3.97
2022-09-18T22:32:12.376Z,2.97
2022-09-18T22:34:42.820Z,5.15
2022-09-18T22:37:13.286Z,7.50
2022-09-18T22:39:46.088Z,3.33
2022-09-18T22:42:15.866Z,11.37
2022-09-18T22:44:49.653Z,8.10
2022-09-18T22:47:20.083Z,3.95
2022-09-18T22:49:50.600Z,4.33
2022-09-18T22:52:20.901Z,3.70
2022-09-18T22:54:51.231Z,3.77
2022-09-18T22:57:21.599Z,3.30
2022-09-18T22:59:51.983Z,3.53
2022-09-18T23:02:23.202Z,3.92
2022-09-18T23:04:53.680Z,4.07
2022-09-18T23:07:25.568Z,4.28
2022-09-18T23:09:55.888Z,4.30
2022-09-18T23:12:26.168Z,4.27
2022-09-18T23:14:56.596Z,5.57
2022-09-18T23:17:26.976Z,5.00
2022-09-18T23:19:57.973Z,3.13
2022-09-18T23:22:28.282Z,6.20
2022-09-18T23:25:00.013Z,4.10
2022-09-18T23:27:30.386Z,4.87
2022-09-18T23:30:00.714Z,3.17
2022-09-18T23:32:31.200Z,4.40
2022-09-18T23:35:01.626Z,4.10
2022-09-18T23:37:31.975Z,3.57
2022-09-18T23:40:02.643Z,5.97
2022-09-18T23:42:33.088Z,4.20
2022-09-18T23:45:03.466Z,3.07
2022-09-18T23:47:35.516Z,5.70
2022-09-18T23:50:06.293Z,4.07
2022-09-18T23:52:36.607Z,3.47
2022-09-18T23:55:07.058Z,4.13
2022-09-18T23:57:37.558Z,3.23
